sensor_id;sensor_type;location;lat;lon;timestamp;pressure;altitude;pressure_sealevel;temperature;humidity
12247;BME280;6186;52.022;4.692;2023-03-08T00:00:06;100189.88;;;1.99;100.00
12247;BME280;6186;52.022;4.692;2023-03-08T00:02:32;100183.81;;;1.97;100.00
12247;BME280;6186;52.022;4.692;2023-03-08T00:04:57;100195.91;;;1.99;100.00
12247;BME280;6186;52.022;4.692;2023-03-08T00:07:23;100183.81;;;1.98;100.00
12247;BME280;6186;52.022;4.692;2023-03-08T00:09:48;100179.50;;;1.91;100.00
12247;BME280;6186;52.022;4.692;2023-03-08T00:12:14;100174.28;;;1.96;100.00
12247;BME280;6186;52.022;4.692;2023-03-08T00:14:43;100176.88;;;1.94;100.00
12247;BME280;6186;52.022;4.692;2023-03-08T00:17:08;100176.03;;;1.97;100.00
12247;BME280;6186;52.022;4.692;2023-03-08T00:19:34;100183.81;;;1.98;100.00
12247;BME280;6186;52.022;4.692;2023-03-08T00:21:59;100200.25;;;1.99;100.00
12247;BME280;6186;52.022;4.692;2023-03-08T00:24:24;100194.16;;;2.01;100.00
12247;BME280;6186;52.022;4.692;2023-03-08T00:26:50;100193.31;;;2.04;100.00
12247;BME280;6186;52.022;4.692;2023-03-08T00:29:15;100186.38;;;2.09;100.00
12247;BME280;6186;52.022;4.692;2023-03-08T00:31:40;100179.47;;;2.14;100.00
12247;BME280;6186;52.022;4.692;2023-03-08T00:34:06;100171.66;;;2.17;100.00
12247;BME280;6186;52.022;4.692;2023-03-08T00:36:31;100173.38;;;2.19;100.00
12247;BME280;6186;52.022;4.692;2023-03-08T00:38:57;100169.91;;;2.23;100.00
12247;BME280;6186;52.022;4.692;2023-03-08T00:41:22;100165.56;;;2.27;100.00
12247;BME280;6186;52.022;4.692;2023-03-08T00:43:48;100150.00;;;2.28;100.00
12247;BME280;6186;52.022;4.692;2023-03-08T00:46:14;100153.47;;;2.29;100.00
12247;BME280;6186;52.022;4.692;2023-03-08T00:48:40;100149.97;;;2.30;100.00
12247;BME280;6186;52.022;4.692;2023-03-08T00:51:06;100146.53;;;2.31;100.00
12247;BME280;6186;52.022;4.692;2023-03-08T00:53:32;100137.03;;;2.27;100.00
12247;BME280;6186;52.022;4.692;2023-03-08T00:55:58;100146.53;;;2.28;100.00
12247;BME280;6186;52.022;4.692;2023-03-08T00:58:26;100143.94;;;2.25;100.00
12247;BME280;6186;52.022;4.692;2023-03-08T01:00:53;100146.53;;;2.22;100.00
12247;BME280;6186;52.022;4.692;2023-03-08T01:03:19;100142.22;;;2.19;100.00
12247;BME280;6186;52.022;4.692;2023-03-08T01:05:48;100146.56;;;2.19;100.00
12247;BME280;6186;52.022;4.692;2023-03-08T01:08:15;100132.72;;;2.15;100.00
12247;BME280;6186;52.022;4.692;2023-03-08T01:10:46;100133.59;;;2.16;100.00
12247;BME280;6186;52.022;4.692;2023-03-08T01:13:12;100131.84;;;2.15;100.00
12247;BME280;6186;52.022;4.692;2023-03-08T01:15:38;100136.19;;;2.13;100.00
12247;BME280;6186;52.022;4.692;2023-03-08T01:18:04;100126.69;;;2.07;100.00
12247;BME280;6186;52.022;4.692;2023-03-08T01:20:30;100123.22;;;2.05;100.00
12247;BME280;6186;52.022;4.692;2023-03-08T01:22:55;100117.19;;;2.02;100.00
12247;BME280;6186;52.022;4.692;2023-03-08T01:25:21;100106.81;;;1.99;100.00
12247;BME280;6186;52.022;4.692;2023-03-08T01:27:46;100108.56;;;1.97;100.00
12247;BME280;6186;52.022;4.692;2023-03-08T01:30:12;100101.63;;;1.94;100.00
12247;BME280;6186;52.022;4.692;2023-03-08T01:32:38;100089.53;;;1.88;100.00
12247;BME280;6186;52.022;4.692;2023-03-08T01:35:03;100087.78;;;1.93;100.00
12247;BME280;6186;52.022;4.692;2023-03-08T01:37:30;100092.13;;;1.93;100.00
12247;BME280;6186;52.022;4.692;2023-03-08T01:39:56;100085.22;;;1.92;100.00
12247;BME280;6186;52.022;4.692;2023-03-08T01:42:22;100086.94;;;1.91;100.00
12247;BME280;6186;52.022;4.692;2023-03-08T01:44:49;100087.81;;;1.90;100.00
12247;BME280;6186;52.022;4.692;2023-03-08T01:47:22;100084.34;;;1.90;100.00
12247;BME280;6186;52.022;4.692;2023-03-08T01:49:49;100079.19;;;1.87;100.00
12247;BME280;6186;52.022;4.692;2023-03-08T01:52:21;100091.28;;;1.85;100.00
12247;BME280;6186;52.022;4.692;2023-03-08T01:55:01;100070.53;;;1.83;100.00
12247;BME280;6186;52.022;4.692;2023-03-08T01:57:34;100075.72;;;1.83;100.00
12247;BME280;6186;52.022;4.692;2023-03-08T02:00:13;100069.69;;;1.81;100.00
12247;BME280;6186;52.022;4.692;2023-03-08T02:02:43;100064.47;;;1.80;100.00
12247;BME280;6186;52.022;4.692;2023-03-08T02:05:11;100065.34;;;1.80;100.00
12247;BME280;6186;52.022;4.692;2023-03-08T02:07:37;100060.16;;;1.79;100.00
12247;BME280;6186;52.022;4.692;2023-03-08T02:10:02;100061.91;;;1.75;100.00
12247;BME280;6186;52.022;4.692;2023-03-08T02:12:27;100057.59;;;1.71;100.00
12247;BME280;6186;52.022;4.692;2023-03-08T02:14:55;100060.19;;;1.71;100.00
12247;BME280;6186;52.022;4.692;2023-03-08T02:17:22;100058.47;;;1.72;100.00
12247;BME280;6186;52.022;4.692;2023-03-08T02:22:16;100050.69;;;1.72;100.00
12247;BME280;6186;52.022;4.692;2023-03-08T02:24:42;100042.03;;;1.71;100.00
12247;BME280;6186;52.022;4.692;2023-03-08T02:27:12;100040.28;;;1.73;100.00
12247;BME280;6186;52.022;4.692;2023-03-08T02:29:39;100041.16;;;1.75;100.00
12247;BME280;6186;52.022;4.692;2023-03-08T02:32:04;100031.66;;;1.76;100.00
12247;BME280;6186;52.022;4.692;2023-03-08T02:34:30;100029.91;;;1.75;100.00
12247;BME280;6186;52.022;4.692;2023-03-08T02:36:55;100016.94;;;1.75;100.00
12247;BME280;6186;52.022;4.692;2023-03-08T02:39:20;100019.53;;;1.73;100.00
12247;BME280;6186;52.022;4.692;2023-03-08T02:41:46;100018.72;;;1.68;100.00
12247;BME280;6186;52.022;4.692;2023-03-08T02:44:11;100024.75;;;1.72;100.00
12247;BME280;6186;52.022;4.692;2023-03-08T02:46:36;100019.53;;;1.69;100.00
12247;BME280;6186;52.022;4.692;2023-03-08T02:49:02;100017.81;;;1.65;100.00
12247;BME280;6186;52.022;4.692;2023-03-08T02:51:27;100021.31;;;1.55;100.00
12247;BME280;6186;52.022;4.692;2023-03-08T02:53:52;100029.97;;;1.58;100.00
12247;BME280;6186;52.022;4.692;2023-03-08T02:56:19;100036.88;;;1.58;100.00
12247;BME280;6186;52.022;4.692;2023-03-08T02:58:44;100036.88;;;1.58;100.00
12247;BME280;6186;52.022;4.692;2023-03-08T03:01:11;100036.00;;;1.57;100.00
12247;BME280;6186;52.022;4.692;2023-03-08T03:03:37;100018.72;;;1.56;100.00
12247;BME280;6186;52.022;4.692;2023-03-08T03:06:02;100016.97;;;1.55;100.00
12247;BME280;6186;52.022;4.692;2023-03-08T03:08:29;100009.19;;;1.55;100.00
12247;BME280;6186;52.022;4.692;2023-03-08T03:10:55;99997.97;;;1.53;100.00
12247;BME280;6186;52.022;4.692;2023-03-08T03:13:20;99991.91;;;1.56;100.00
12247;BME280;6186;52.022;4.692;2023-03-08T03:15:45;99998.81;;;1.60;100.00
12247;BME280;6186;52.022;4.692;2023-03-08T03:18:11;99993.66;;;1.60;100.00
12247;BME280;6186;52.022;4.692;2023-03-08T03:20:36;99985.00;;;1.61;100.00
12247;BME280;6186;52.022;4.692;2023-03-08T03:23:01;99978.94;;;1.63;100.00
12247;BME280;6186;52.022;4.692;2023-03-08T03:25:27;99973.75;;;1.63;100.00
12247;BME280;6186;52.022;4.692;2023-03-08T03:27:54;99978.94;;;1.63;100.00
12247;BME280;6186;52.022;4.692;2023-03-08T03:30:19;99974.59;;;1.65;100.00
12247;BME280;6186;52.022;4.692;2023-03-08T03:32:45;99959.94;;;1.64;100.00
12247;BME280;6186;52.022;4.692;2023-03-08T03:35:10;99946.97;;;1.64;100.00
12247;BME280;6186;52.022;4.692;2023-03-08T03:37:35;99946.94;;;1.66;100.00
12247;BME280;6186;52.022;4.692;2023-03-08T03:40:01;99940.03;;;1.68;100.00
12247;BME280;6186;52.022;4.692;2023-03-08T03:42:27;99933.13;;;1.68;100.00
12247;BME280;6186;52.022;4.692;2023-03-08T03:44:52;99937.44;;;1.66;100.00
12247;BME280;6186;52.022;4.692;2023-03-08T03:47:17;99929.66;;;1.68;100.00
12247;BME280;6186;52.022;4.692;2023-03-08T03:49:43;99927.94;;;1.62;100.00
12247;BME280;6186;52.022;4.692;2023-03-08T03:52:08;99935.72;;;1.68;100.00
12247;BME280;6186;52.022;4.692;2023-03-08T03:54:33;99931.38;;;1.69;100.00
12247;BME280;6186;52.022;4.692;2023-03-08T03:56:59;99926.19;;;1.66;100.00
12247;BME280;6186;52.022;4.692;2023-03-08T03:59:25;99935.69;;;1.73;100.00
12247;BME280;6186;52.022;4.692;2023-03-08T04:01:51;99931.34;;;1.70;100.00
12247;BME280;6186;52.022;4.692;2023-03-08T04:04:16;99933.06;;;1.74;100.00
12247;BME280;6186;52.022;4.692;2023-03-08T04:06:41;99931.34;;;1.75;100.00
12247;BME280;6186;52.022;4.692;2023-03-08T04:09:13;99921.84;;;1.75;100.00
12247;BME280;6186;52.022;4.692;2023-03-08T04:11:39;99920.09;;;1.77;100.00
12247;BME280;6186;52.022;4.692;2023-03-08T04:14:05;99911.44;;;1.77;100.00
12247;BME280;6186;52.022;4.692;2023-03-08T04:16:33;99909.72;;;1.79;100.00
12247;BME280;6186;52.022;4.692;2023-03-08T04:19:02;99908.84;;;1.80;100.00
12247;BME280;6186;52.022;4.692;2023-03-08T04:21:28;99902.81;;;1.79;100.00
12247;BME280;6186;52.022;4.692;2023-03-08T04:23:53;99899.38;;;1.76;100.00
12247;BME280;6186;52.022;4.692;2023-03-08T04:26:20;99901.09;;;1.72;100.00
12247;BME280;6186;52.022;4.692;2023-03-08T04:28:45;99893.31;;;1.71;100.00
12247;BME280;6186;52.022;4.692;2023-03-08T04:33:41;99882.06;;;1.70;100.00
12247;BME280;6186;52.022;4.692;2023-03-08T04:36:06;99878.63;;;1.71;100.00
12247;BME280;6186;52.022;4.692;2023-03-08T04:38:32;99872.56;;;1.74;100.00
12247;BME280;6186;52.022;4.692;2023-03-08T04:40:57;99873.41;;;1.77;100.00
12247;BME280;6186;52.022;4.692;2023-03-08T04:43:29;99863.91;;;1.79;100.00
12247;BME280;6186;52.022;4.692;2023-03-08T04:45:54;99864.75;;;1.81;100.00
12247;BME280;6186;52.022;4.692;2023-03-08T04:48:20;99867.31;;;1.84;100.00
12247;BME280;6186;52.022;4.692;2023-03-08T04:50:52;99872.50;;;1.89;100.00
12247;BME280;6186;52.022;4.692;2023-03-08T04:53:18;99864.66;;;1.92;100.00
12247;BME280;6186;52.022;4.692;2023-03-08T04:55:43;99858.63;;;1.95;100.00
12247;BME280;6186;52.022;4.692;2023-03-08T04:58:08;99847.34;;;1.96;100.00
12247;BME280;6186;52.022;4.692;2023-03-08T05:00:33;99840.44;;;1.96;100.00
12247;BME280;6186;52.022;4.692;2023-03-08T05:02:59;99846.47;;;1.98;100.00
12247;BME280;6186;52.022;4.692;2023-03-08T05:05:24;99835.22;;;1.99;100.00
12247;BME280;6186;52.022;4.692;2023-03-08T05:07:49;99835.22;;;2.01;100.00
12247;BME280;6186;52.022;4.692;2023-03-08T05:10:15;99826.56;;;2.02;100.00
12247;BME280;6186;52.022;4.692;2023-03-08T05:12:40;99818.78;;;2.02;100.00
12247;BME280;6186;52.022;4.692;2023-03-08T05:15:06;99818.78;;;2.02;100.00
12247;BME280;6186;52.022;4.692;2023-03-08T05:17:31;99814.44;;;1.99;100.00
12247;BME280;6186;52.022;4.692;2023-03-08T05:19:56;99818.81;;;1.99;100.00
12247;BME280;6186;52.022;4.692;2023-03-08T05:22:22;99802.34;;;2.00;100.00
12247;BME280;6186;52.022;4.692;2023-03-08T05:24:47;99791.97;;;2.00;100.00
12247;BME280;6186;52.022;4.692;2023-03-08T05:27:12;99786.78;;;2.00;100.00
12247;BME280;6186;52.022;4.692;2023-03-08T05:29:38;99772.09;;;1.96;100.00
12247;BME280;6186;52.022;4.692;2023-03-08T05:32:03;99770.34;;;1.99;100.00
12247;BME280;6186;52.022;4.692;2023-03-08T05:34:29;99767.75;;;1.99;100.00
12247;BME280;6186;52.022;4.692;2023-03-08T05:36:55;99755.69;;;1.97;100.00
12247;BME280;6186;52.022;4.692;2023-03-08T05:39:21;99753.97;;;1.94;100.00
12247;BME280;6186;52.022;4.692;2023-03-08T05:41:47;99758.28;;;1.93;100.00
12247;BME280;6186;52.022;4.692;2023-03-08T05:44:12;99751.41;;;1.89;100.00
12247;BME280;6186;52.022;4.692;2023-03-08T05:46:37;99753.97;;;1.89;100.00
12247;BME280;6186;52.022;4.692;2023-03-08T05:49:04;99738.53;;;1.79;100.00
12247;BME280;6186;52.022;4.692;2023-03-08T05:51:29;99741.06;;;1.86;100.00
12247;BME280;6186;52.022;4.692;2023-03-08T05:53:55;99747.97;;;1.86;100.00
12247;BME280;6186;52.022;4.692;2023-03-08T05:56:22;99743.69;;;1.83;100.00
12247;BME280;6186;52.022;4.692;2023-03-08T05:58:48;99738.53;;;1.74;100.00
12247;BME280;6186;52.022;4.692;2023-03-08T06:01:22;99733.38;;;1.76;100.00
12247;BME280;6186;52.022;4.692;2023-03-08T06:03:50;99730.78;;;1.73;100.00
12247;BME280;6186;52.022;4.692;2023-03-08T06:06:17;99729.06;;;1.69;100.00
12247;BME280;6186;52.022;4.692;2023-03-08T06:08:42;99714.44;;;1.62;100.00
12247;BME280;6186;52.022;4.692;2023-03-08T06:11:08;99728.25;;;1.65;100.00
12247;BME280;6186;52.022;4.692;2023-03-08T06:13:34;99734.31;;;1.61;100.00
12247;BME280;6186;52.022;4.692;2023-03-08T06:16:01;99730.03;;;1.60;100.00
12247;BME280;6186;52.022;4.692;2023-03-08T06:18:27;99727.41;;;1.62;100.00
12247;BME280;6186;52.022;4.692;2023-03-08T06:21:03;99730.00;;;1.63;100.00
12247;BME280;6186;52.022;4.692;2023-03-08T06:23:30;99733.47;;;1.59;100.00
12247;BME280;6186;52.022;4.692;2023-03-08T06:25:57;99737.78;;;1.62;100.00
12247;BME280;6186;52.022;4.692;2023-03-08T06:28:23;99732.59;;;1.62;100.00
12247;BME280;6186;52.022;4.692;2023-03-08T06:30:50;99724.84;;;1.56;100.00
12247;BME280;6186;52.022;4.692;2023-03-08T06:33:17;99734.31;;;1.61;100.00
12247;BME280;6186;52.022;4.692;2023-03-08T06:35:43;99735.19;;;1.62;100.00
12247;BME280;6186;52.022;4.692;2023-03-08T06:38:08;99735.16;;;1.63;100.00
12247;BME280;6186;52.022;4.692;2023-03-08T06:40:34;99720.47;;;1.65;100.00
12247;BME280;6186;52.022;4.692;2023-03-08T06:42:59;99725.63;;;1.67;100.00
12247;BME280;6186;52.022;4.692;2023-03-08T06:45:26;99722.19;;;1.68;100.00
12247;BME280;6186;52.022;4.692;2023-03-08T06:47:51;99698.06;;;1.55;100.00
12247;BME280;6186;52.022;4.692;2023-03-08T06:50:16;99722.19;;;1.68;100.00
12247;BME280;6186;52.022;4.692;2023-03-08T06:52:42;99723.03;;;1.67;100.00
12247;BME280;6186;52.022;4.692;2023-03-08T06:55:08;99723.06;;;1.64;100.00
12247;BME280;6186;52.022;4.692;2023-03-08T06:57:33;99720.47;;;1.65;100.00
12247;BME280;6186;52.022;4.692;2023-03-08T06:59:59;99717.84;;;1.67;100.00
12247;BME280;6186;52.022;4.692;2023-03-08T07:02:24;99712.69;;;1.68;100.00
12247;BME280;6186;52.022;4.692;2023-03-08T07:04:49;99706.63;;;1.68;100.00
12247;BME280;6186;52.022;4.692;2023-03-08T07:07:15;99713.50;;;1.73;100.00
12247;BME280;6186;52.022;4.692;2023-03-08T07:09:40;99712.59;;;1.77;100.00
12247;BME280;6186;52.022;4.692;2023-03-08T07:12:05;99710.84;;;1.78;100.00
12247;BME280;6186;52.022;4.692;2023-03-08T07:14:31;99712.56;;;1.83;100.00
12247;BME280;6186;52.022;4.692;2023-03-08T07:16:56;99693.56;;;1.77;100.00
12247;BME280;6186;52.022;4.692;2023-03-08T07:19:21;99690.16;;;1.73;100.00
12247;BME280;6186;52.022;4.692;2023-03-08T07:21:47;99697.00;;;1.83;100.00
12247;BME280;6186;52.022;4.692;2023-03-08T07:24:12;99705.63;;;1.82;100.00
12247;BME280;6186;52.022;4.692;2023-03-08T07:26:37;99708.22;;;1.82;100.00
12247;BME280;6186;52.022;4.692;2023-03-08T07:29:03;99701.34;;;1.81;100.00
12247;BME280;6186;52.022;4.692;2023-03-08T07:31:28;99703.94;;;1.81;100.00
12247;BME280;6186;52.022;4.692;2023-03-08T07:33:55;99690.16;;;1.73;100.00
12247;BME280;6186;52.022;4.692;2023-03-08T07:36:20;99697.84;;;1.82;100.00
12247;BME280;6186;52.022;4.692;2023-03-08T07:38:46;99690.06;;;1.82;100.00
12247;BME280;6186;52.022;4.692;2023-03-08T07:41:11;99684.03;;;1.83;100.00
12247;BME280;6186;52.022;4.692;2023-03-08T07:43:37;99684.91;;;1.79;100.00
12247;BME280;6186;52.022;4.692;2023-03-08T07:46:03;99689.19;;;1.85;100.00
12247;BME280;6186;52.022;4.692;2023-03-08T07:48:30;99688.34;;;1.83;100.00
12247;BME280;6186;52.022;4.692;2023-03-08T07:51:04;99658.28;;;1.61;100.00
12247;BME280;6186;52.022;4.692;2023-03-08T07:53:32;99690.97;;;1.81;100.00
12247;BME280;6186;52.022;4.692;2023-03-08T07:55:58;99687.44;;;1.85;100.00
12247;BME280;6186;52.022;4.692;2023-03-08T07:58:25;99692.63;;;1.88;100.00
12247;BME280;6186;52.022;4.692;2023-03-08T08:00:50;99688.28;;;1.90;100.00
12247;BME280;6186;52.022;4.692;2023-03-08T08:03:15;99691.72;;;1.89;100.00
12247;BME280;6186;52.022;4.692;2023-03-08T08:05:41;99681.38;;;1.88;100.00
12247;BME280;6186;52.022;4.692;2023-03-08T08:08:06;99677.06;;;1.88;100.00
12247;BME280;6186;52.022;4.692;2023-03-08T08:10:31;99670.97;;;1.92;100.00
12247;BME280;6186;52.022;4.692;2023-03-08T08:12:57;99668.34;;;1.94;100.00
12247;BME280;6186;52.022;4.692;2023-03-08T08:15:22;99672.66;;;1.95;100.00
12247;BME280;6186;52.022;4.692;2023-03-08T08:17:50;99677.03;;;1.90;100.00
12247;BME280;6186;52.022;4.692;2023-03-08T08:20:15;99651.19;;;1.81;100.00
12247;BME280;6186;52.022;4.692;2023-03-08T08:22:40;99659.75;;;1.89;100.00
12247;BME280;6186;52.022;4.692;2023-03-08T08:25:06;99655.41;;;1.91;100.00
12247;BME280;6186;52.022;4.692;2023-03-08T08:27:32;99650.25;;;1.86;100.00
12247;BME280;6186;52.022;4.692;2023-03-08T08:29:58;99658.84;;;1.91;100.00
12247;BME280;6186;52.022;4.692;2023-03-08T08:32:24;99652.81;;;1.92;100.00
12247;BME280;6186;52.022;4.692;2023-03-08T08:34:49;99658.78;;;2.01;100.00
12247;BME280;6186;52.022;4.692;2023-03-08T08:37:14;99653.56;;;2.02;100.00
12247;BME280;6186;52.022;4.692;2023-03-08T08:39:40;99645.75;;;2.08;100.00
12247;BME280;6186;52.022;4.692;2023-03-08T08:42:05;99658.63;;;2.13;100.00
12247;BME280;6186;52.022;4.692;2023-03-08T08:44:31;99643.06;;;2.13;100.00
12247;BME280;6186;52.022;4.692;2023-03-08T08:46:56;99638.75;;;2.13;100.00
12247;BME280;6186;52.022;4.692;2023-03-08T08:49:21;99639.56;;;2.17;100.00
12247;BME280;6186;52.022;4.692;2023-03-08T08:51:47;99636.06;;;2.21;100.00
12247;BME280;6186;52.022;4.692;2023-03-08T08:54:12;99644.72;;;2.23;100.00
12247;BME280;6186;52.022;4.692;2023-03-08T08:56:38;99637.78;;;2.22;100.00
12247;BME280;6186;52.022;4.692;2023-03-08T08:59:09;99641.19;;;2.27;100.00
12247;BME280;6186;52.022;4.692;2023-03-08T09:01:34;99644.66;;;2.29;100.00
12247;BME280;6186;52.022;4.692;2023-03-08T09:04:01;99632.50;;;2.29;100.00
12247;BME280;6186;52.022;4.692;2023-03-08T09:06:28;99612.69;;;2.25;100.00
12247;BME280;6186;52.022;4.692;2023-03-08T09:08:58;99621.28;;;2.26;100.00
12247;BME280;6186;52.022;4.692;2023-03-08T09:11:26;99611.75;;;2.31;100.00
12247;BME280;6186;52.022;4.692;2023-03-08T09:13:52;99610.81;;;2.36;100.00
12247;BME280;6186;52.022;4.692;2023-03-08T09:16:25;99613.34;;;2.39;100.00
12247;BME280;6186;52.022;4.692;2023-03-08T09:18:51;99590.78;;;2.46;100.00
12247;BME280;6186;52.022;4.692;2023-03-08T09:21:17;99588.97;;;2.51;100.00
12247;BME280;6186;52.022;4.692;2023-03-08T09:23:43;99584.47;;;2.63;100.00
12247;BME280;6186;52.022;4.692;2023-03-08T09:26:09;99586.00;;;2.76;100.00
12247;BME280;6186;52.022;4.692;2023-03-08T09:28:35;99572.06;;;2.83;100.00
12247;BME280;6186;52.022;4.692;2023-03-08T09:31:06;99585.50;;;3.11;100.00
12247;BME280;6186;52.022;4.692;2023-03-08T09:33:37;99580.91;;;3.28;100.00
12247;BME280;6186;52.022;4.692;2023-03-08T09:36:02;99574.63;;;3.41;100.00
12247;BME280;6186;52.022;4.692;2023-03-08T09:38:28;99577.06;;;3.52;100.00
12247;BME280;6186;52.022;4.692;2023-03-08T09:43:54;99571.81;;;3.53;100.00
12247;BME280;6186;52.022;4.692;2023-03-08T09:46:33;99578.81;;;3.50;100.00
12247;BME280;6186;52.022;4.692;2023-03-08T09:49:02;99573.63;;;3.48;100.00
12247;BME280;6186;52.022;4.692;2023-03-08T09:51:34;99575.44;;;3.43;100.00
12247;BME280;6186;52.022;4.692;2023-03-08T09:54:12;99594.56;;;3.42;100.00
12247;BME280;6186;52.022;4.692;2023-03-08T09:56:49;99588.50;;;3.39;100.00
12247;BME280;6186;52.022;4.692;2023-03-08T09:59:30;99582.63;;;3.29;100.00
12247;BME280;6186;52.022;4.692;2023-03-08T10:02:15;99575.63;;;3.31;100.00
12247;BME280;6186;52.022;4.692;2023-03-08T10:10:45;99593.66;;;3.43;100.00
12247;BME280;6186;52.022;4.692;2023-03-08T10:15:42;99558.00;;;3.48;100.00
12247;BME280;6186;52.022;4.692;2023-03-08T10:18:18;99555.38;;;3.51;100.00
12247;BME280;6186;52.022;4.692;2023-03-08T10:20:46;99547.63;;;3.48;100.00
12247;BME280;6186;52.022;4.692;2023-03-08T10:23:17;99540.44;;;3.62;100.00
12247;BME280;6186;52.022;4.692;2023-03-08T10:25:44;99536.66;;;3.78;100.00
12247;BME280;6186;52.022;4.692;2023-03-08T10:28:15;99527.75;;;3.92;100.00
12247;BME280;6186;52.022;4.692;2023-03-08T10:30:55;99522.41;;;3.99;100.00
12247;BME280;6186;52.022;4.692;2023-03-08T10:33:23;99518.84;;;4.02;100.00
12247;BME280;6186;52.022;4.692;2023-03-08T10:35:57;99526.56;;;4.06;100.00
12247;BME280;6186;52.022;4.692;2023-03-08T10:38:27;99518.78;;;4.06;100.00
12247;BME280;6186;52.022;4.692;2023-03-08T10:41:14;99529.97;;;4.10;100.00
12247;BME280;6186;52.022;4.692;2023-03-08T10:43:51;99546.50;;;4.09;100.00
12247;BME280;6186;52.022;4.692;2023-03-08T10:46:19;99556.00;;;4.10;100.00
12247;BME280;6186;52.022;4.692;2023-03-08T10:48:45;99555.09;;;4.11;100.00
12247;BME280;6186;52.022;4.692;2023-03-08T10:56:28;99542.38;;;3.97;100.00
12247;BME280;6186;52.022;4.692;2023-03-08T10:58:57;99539.81;;;3.94;100.00
12247;BME280;6186;52.022;4.692;2023-03-08T11:01:32;99552.03;;;3.91;100.00
12247;BME280;6186;52.022;4.692;2023-03-08T11:04:13;99554.59;;;3.92;100.00
12247;BME280;6186;52.022;4.692;2023-03-08T11:06:40;99542.53;;;3.90;100.00
12247;BME280;6186;52.022;4.692;2023-03-08T11:09:29;99537.09;;;4.00;100.00
12247;BME280;6186;52.022;4.692;2023-03-08T11:11:58;99522.91;;;4.15;100.00
12247;BME280;6186;52.022;4.692;2023-03-08T11:14:25;99512.19;;;4.31;100.00
12247;BME280;6186;52.022;4.692;2023-03-08T11:22:15;99519.31;;;4.60;100.00
12247;BME280;6186;52.022;4.692;2023-03-08T11:27:39;99501.38;;;4.48;100.00
12247;BME280;6186;52.022;4.692;2023-03-08T11:38:53;99497.47;;;4.29;100.00
12247;BME280;6186;52.022;4.692;2023-03-08T11:44:24;99476.22;;;4.47;100.00
12247;BME280;6186;52.022;4.692;2023-03-08T12:00:37;99464.47;;;8.08;100.00
12247;BME280;6186;52.022;4.692;2023-03-08T12:03:16;99475.16;;;7.79;100.00
12247;BME280;6186;52.022;4.692;2023-03-08T12:05:52;99483.06;;;7.28;100.00
12247;BME280;6186;52.022;4.692;2023-03-08T12:08:28;99488.19;;;6.78;100.00
12247;BME280;6186;52.022;4.692;2023-03-08T12:11:00;99490.94;;;6.47;100.00
12247;BME280;6186;52.022;4.692;2023-03-08T12:13:37;99489.13;;;6.20;100.00
12247;BME280;6186;52.022;4.692;2023-03-08T12:18:37;99496.47;;;5.73;100.00
12247;BME280;6186;52.022;4.692;2023-03-08T12:24:17;99484.25;;;5.45;100.00
12247;BME280;6186;52.022;4.692;2023-03-08T12:27:08;99485.47;;;5.30;100.00
12247;BME280;6186;52.022;4.692;2023-03-08T12:29:40;99477.88;;;5.21;100.00
12247;BME280;6186;52.022;4.692;2023-03-08T12:32:09;99463.28;;;5.14;100.00
12247;BME280;6186;52.022;4.692;2023-03-08T12:34:44;99458.97;;;5.13;100.00
12247;BME280;6186;52.022;4.692;2023-03-08T12:37:24;99463.34;;;5.13;100.00
12247;BME280;6186;52.022;4.692;2023-03-08T12:40:27;99457.25;;;5.12;100.00
12247;BME280;6186;52.022;4.692;2023-03-08T12:43:07;99468.63;;;5.10;100.00
12247;BME280;6186;52.022;4.692;2023-03-08T12:45:33;99476.56;;;5.05;100.00
12247;BME280;6186;52.022;4.692;2023-03-08T12:50:40;99487.09;;;5.01;100.00
12247;BME280;6186;52.022;4.692;2023-03-08T12:53:28;99484.50;;;5.01;100.00
12247;BME280;6186;52.022;4.692;2023-03-08T12:58:36;99481.94;;;4.99;100.00
12247;BME280;6186;52.022;4.692;2023-03-08T13:01:05;99481.97;;;4.98;100.00
12247;BME280;6186;52.022;4.692;2023-03-08T13:03:39;99482.16;;;4.90;100.00
12247;BME280;6186;52.022;4.692;2023-03-08T13:08:59;99470.00;;;4.89;100.00
12247;BME280;6186;52.022;4.692;2023-03-08T13:11:41;99468.22;;;4.91;100.00
12247;BME280;6186;52.022;4.692;2023-03-08T13:19:56;99456.06;;;4.92;100.00
12247;BME280;6186;52.022;4.692;2023-03-08T13:22:53;99458.66;;;4.92;100.00
12247;BME280;6186;52.022;4.692;2023-03-08T13:30:35;99471.69;;;4.92;100.00
12247;BME280;6186;52.022;4.692;2023-03-08T13:33:13;99450.06;;;4.87;100.00
12247;BME280;6186;52.022;4.692;2023-03-08T13:35:38;99455.28;;;4.87;100.00
12247;BME280;6186;52.022;4.692;2023-03-08T13:38:04;99451.81;;;4.88;100.00
12247;BME280;6186;52.022;4.692;2023-03-08T13:40:30;99458.75;;;4.87;100.00
12247;BME280;6186;52.022;4.692;2023-03-08T13:43:01;99452.63;;;4.90;100.00
12247;BME280;6186;52.022;4.692;2023-03-08T13:45:27;99449.81;;;4.97;100.00
12247;BME280;6186;52.022;4.692;2023-03-08T13:47:55;99448.91;;;4.98;100.00
12247;BME280;6186;52.022;4.692;2023-03-08T13:50:28;99434.34;;;4.91;100.00
12247;BME280;6186;52.022;4.692;2023-03-08T13:52:54;99442.25;;;4.88;100.00
12247;BME280;6186;52.022;4.692;2023-03-08T13:55:26;99456.25;;;4.84;100.00
12247;BME280;6186;52.022;4.692;2023-03-08T13:57:52;99452.09;;;4.75;100.00
12247;BME280;6186;52.022;4.692;2023-03-08T14:00:24;99453.78;;;4.78;100.00
12247;BME280;6186;52.022;4.692;2023-03-08T14:02:50;99426.94;;;4.74;100.00
12247;BME280;6186;52.022;4.692;2023-03-08T14:05:21;99440.75;;;4.78;100.00
12247;BME280;6186;52.022;4.692;2023-03-08T14:08:02;99441.69;;;4.74;100.00
12247;BME280;6186;52.022;4.692;2023-03-08T14:10:34;99440.09;;;4.68;100.00
12247;BME280;6186;52.022;4.692;2023-03-08T14:13:01;99443.81;;;4.58;100.00
12247;BME280;6186;52.022;4.692;2023-03-08T14:15:27;99453.22;;;4.64;100.00
12247;BME280;6186;52.022;4.692;2023-03-08T14:17:53;99444.53;;;4.65;100.00
12247;BME280;6186;52.022;4.692;2023-03-08T14:20:21;99442.75;;;4.67;100.00
12247;BME280;6186;52.022;4.692;2023-03-08T14:22:52;99432.34;;;4.67;100.00
12247;BME280;6186;52.022;4.692;2023-03-08T14:25:30;99437.41;;;4.73;100.00
12247;BME280;6186;52.022;4.692;2023-03-08T14:27:56;99441.75;;;4.72;100.00
12247;BME280;6186;52.022;4.692;2023-03-08T14:30:28;99435.66;;;4.72;100.00